Time;durP1;ratioP1;P1;durP2;ratioP2;P2;SDS_P1;SDS_P2;PMS_P1;PMS_P2;Temp;Humidity;BMP_temperature;BMP_pressure;BME280_temperature;BME280_humidity;BME280_pressure;Samples;Min_cycle;Max_cycle;Signal;HPM_P1;HPM_P2
2021/12/01 00:00:34;;;;;;;8.45;1.50;;;;;;;;;;5076610;28;20024;-69
2021/12/01 00:03:00;;;;;;;5.65;1.13;;;;;;;;;;5076870;28;20122;-69
2021/12/01 00:05:27;;;;;;;3.63;1.15;;;;;;;;;;5076584;28;20025;-69
2021/12/01 00:07:54;;;;;;;6.32;1.52;;;;;;;;;;5076394;28;20033;-69
2021/12/01 00:10:21;;;;;;;9.13;1.20;;;;;;;;;;5076359;28;20052;-71
2021/12/01 00:12:47;;;;;;;6.38;1.23;;;;;;;;;;5076402;28;20024;-72
2021/12/01 00:15:13;;;;;;;6.45;1.27;;;;;;;;;;5076073;28;20055;-72
2021/12/01 00:17:40;;;;;;;5.57;1.30;;;;;;;;;;5076620;28;20021;-72
2021/12/01 00:20:08;;;;;;;5.60;1.02;;;;;;;;;;5075897;28;20043;-71
2021/12/01 00:22:33;;;;;;;4.78;1.05;;;;;;;;;;5076316;28;20096;-71
2021/12/01 00:24:59;;;;;;;4.68;1.05;;;;;;;;;;5076246;28;20052;-72
2021/12/01 00:27:25;;;;;;;5.22;1.20;;;;;;;;;;5076092;28;20029;-72
2021/12/01 00:29:51;;;;;;;4.25;1.52;;;;;;;;;;5076263;28;20423;-73
2021/12/01 00:32:18;;;;;;;6.00;1.35;;;;;;;;;;5058208;28;20399;-72
2021/12/01 00:34:44;;;;;;;8.15;1.50;;;;;;;;;;5075875;28;20506;-74
2021/12/01 00:37:10;;;;;;;6.93;1.65;;;;;;;;;;5075820;28;20431;-74
2021/12/01 00:39:36;;;;;;;4.25;1.23;;;;;;;;;;5076012;28;20024;-74
2021/12/01 00:42:02;;;;;;;7.72;1.00;;;;;;;;;;5075760;28;20062;-74
2021/12/01 00:44:30;;;;;;;6.57;1.38;;;;;;;;;;5076153;28;20025;-74
2021/12/01 00:47:05;;;;;;;6.10;1.50;;;;;;;;;;5058034;28;20028;-74
2021/12/01 00:49:32;;;;;;;8.90;1.70;;;;;;;;;;5074846;28;20028;-74
2021/12/01 00:51:58;;;;;;;7.93;1.60;;;;;;;;;;5075688;28;20036;-73
2021/12/01 00:54:24;;;;;;;7.57;1.95;;;;;;;;;;5057730;28;20033;-72
2021/12/01 00:56:50;;;;;;;5.95;1.67;;;;;;;;;;5057578;28;20024;-73
2021/12/01 00:59:17;;;;;;;6.05;1.40;;;;;;;;;;5075524;28;20074;-72
2021/12/01 01:01:43;;;;;;;7.35;1.20;;;;;;;;;;5057661;28;20457;-73
2021/12/01 01:04:09;;;;;;;21.80;2.60;;;;;;;;;;5057586;28;20029;-72
2021/12/01 01:06:37;;;;;;;8.60;1.92;;;;;;;;;;5054026;28;20031;-73
2021/12/01 01:09:05;;;;;;;7.80;1.30;;;;;;;;;;5055294;28;20108;-74
2021/12/01 01:17:01;;;;;;;38.97;3.28;;;;;;;;;;5056004;28;20095;-69
2021/12/01 01:19:27;;;;;;;41.92;4.20;;;;;;;;;;5055499;28;20025;-70
2021/12/01 01:21:55;;;;;;;46.53;3.42;;;;;;;;;;5055470;28;20396;-74
2021/12/01 01:24:21;;;;;;;43.25;2.78;;;;;;;;;;5069373;28;20016;-73
2021/12/01 01:26:48;;;;;;;30.75;2.70;;;;;;;;;;5075124;28;20020;-73
2021/12/01 01:29:14;;;;;;;23.10;2.30;;;;;;;;;;5074585;28;20032;-75
2021/12/01 01:31:40;;;;;;;18.23;1.90;;;;;;;;;;5075081;28;20029;-74
2021/12/01 01:34:06;;;;;;;15.93;2.08;;;;;;;;;;5056822;28;20029;-72
2021/12/01 01:36:32;;;;;;;22.42;2.60;;;;;;;;;;5074770;28;20032;-71
2021/12/01 01:38:58;;;;;;;19.48;2.47;;;;;;;;;;5047929;28;20102;-73
2021/12/01 01:41:25;;;;;;;14.40;2.17;;;;;;;;;;5054849;28;20378;-73
2021/12/01 01:43:52;;;;;;;6.90;1.48;;;;;;;;;;5054718;28;20021;-73
2021/12/01 01:46:18;;;;;;;9.90;2.05;;;;;;;;;;5054842;28;20465;-72
2021/12/01 01:48:54;;;;;;;14.68;1.88;;;;;;;;;;5054520;28;20507;-73
2021/12/01 01:51:23;;;;;;;16.52;2.55;;;;;;;;;;5036765;28;20029;-73
2021/12/01 01:53:52;;;;;;;13.07;2.40;;;;;;;;;;5036448;28;20032;-73
2021/12/01 01:56:18;;;;;;;15.32;2.15;;;;;;;;;;5061770;28;20028;-71
2021/12/01 01:58:45;;;;;;;14.35;2.20;;;;;;;;;;5074124;28;20013;-73
2021/12/01 02:01:22;;;;;;;15.88;2.45;;;;;;;;;;5055388;28;20104;-73
2021/12/01 02:03:49;;;;;;;10.60;2.38;;;;;;;;;;5071755;28;20013;-72
2021/12/01 02:06:22;;;;;;;16.10;2.30;;;;;;;;;;5074171;28;20052;-73
2021/12/01 02:08:48;;;;;;;17.95;2.22;;;;;;;;;;5074266;28;20025;-73
2021/12/01 02:11:14;;;;;;;10.38;2.35;;;;;;;;;;5074020;28;20062;-74
2021/12/01 02:13:41;;;;;;;10.38;1.92;;;;;;;;;;5073887;28;20055;-75
2021/12/01 02:16:07;;;;;;;10.10;2.08;;;;;;;;;;5073782;28;20052;-70
2021/12/01 02:18:33;;;;;;;11.35;1.98;;;;;;;;;;5055896;28;20021;-72
2021/12/01 02:21:02;;;;;;;11.55;1.92;;;;;;;;;;5074169;28;20040;-73
2021/12/01 02:23:28;;;;;;;20.02;2.92;;;;;;;;;;5073806;28;20607;-72
2021/12/01 02:25:54;;;;;;;23.92;2.83;;;;;;;;;;5056212;28;20032;-72
2021/12/01 02:28:20;;;;;;;14.02;2.53;;;;;;;;;;5073517;28;20021;-72
2021/12/01 02:30:46;;;;;;;18.08;2.22;;;;;;;;;;5073737;28;20032;-71
2021/12/01 02:33:12;;;;;;;13.35;2.70;;;;;;;;;;5073707;28;20031;-71
2021/12/01 02:35:43;;;;;;;9.23;1.70;;;;;;;;;;5073347;28;20447;-72
2021/12/01 02:38:09;;;;;;;8.27;1.73;;;;;;;;;;5055385;28;20024;-73
2021/12/01 02:40:34;;;;;;;11.55;1.75;;;;;;;;;;5073926;28;20115;-71
2021/12/01 02:43:00;;;;;;;12.07;1.60;;;;;;;;;;5074108;28;20043;-72
2021/12/01 02:45:26;;;;;;;7.72;1.40;;;;;;;;;;5073359;28;20395;-72
2021/12/01 02:47:52;;;;;;;8.18;1.70;;;;;;;;;;5073578;28;20029;-73
2021/12/01 02:50:18;;;;;;;5.88;1.40;;;;;;;;;;5073358;28;20028;-71
2021/12/01 02:52:46;;;;;;;6.03;1.25;;;;;;;;;;5073439;28;20017;-72
2021/12/01 02:55:15;;;;;;;5.88;1.17;;;;;;;;;;5073221;28;20033;-72
2021/12/01 02:57:42;;;;;;;6.13;1.10;;;;;;;;;;5055434;28;20016;-72
2021/12/01 03:00:09;;;;;;;6.82;1.40;;;;;;;;;;5053657;28;20415;-72
2021/12/01 03:02:35;;;;;;;6.55;0.95;;;;;;;;;;5053452;28;20028;-71
2021/12/01 03:05:01;;;;;;;7.28;1.38;;;;;;;;;;5053308;28;20563;-71
2021/12/01 03:07:27;;;;;;;5.25;0.93;;;;;;;;;;5053191;28;20021;-71
2021/12/01 03:09:53;;;;;;;6.50;1.00;;;;;;;;;;5053242;28;20040;-72
2021/12/01 03:12:19;;;;;;;10.05;1.00;;;;;;;;;;5052901;28;20029;-72
2021/12/01 03:14:45;;;;;;;5.05;1.25;;;;;;;;;;5034969;28;20037;-72
2021/12/01 03:17:11;;;;;;;3.85;1.00;;;;;;;;;;5053931;28;20086;-72
2021/12/01 03:19:37;;;;;;;3.05;0.77;;;;;;;;;;5073122;28;20029;-72
2021/12/01 03:22:03;;;;;;;2.88;0.90;;;;;;;;;;5073199;28;20050;-69
2021/12/01 03:24:32;;;;;;;6.53;0.60;;;;;;;;;;5073150;28;20021;-72
2021/12/01 03:26:58;;;;;;;3.17;0.60;;;;;;;;;;5055167;28;20253;-72
2021/12/01 03:29:24;;;;;;;1.38;0.52;;;;;;;;;;5073297;28;20071;-72
2021/12/01 03:31:50;;;;;;;2.00;0.60;;;;;;;;;;5073084;28;20028;-71
2021/12/01 03:34:16;;;;;;;1.50;0.57;;;;;;;;;;5073113;28;20041;-71
2021/12/01 03:36:42;;;;;;;3.00;0.60;;;;;;;;;;5072934;28;20028;-73
2021/12/01 03:39:08;;;;;;;0.80;0.40;;;;;;;;;;5072986;28;20056;-73
2021/12/01 03:41:34;;;;;;;2.13;0.40;;;;;;;;;;5072943;28;20379;-72
2021/12/01 03:44:01;;;;;;;0.98;0.50;;;;;;;;;;5055007;28;20032;-72
2021/12/01 03:46:27;;;;;;;0.85;0.40;;;;;;;;;;5073633;28;20380;-70
2021/12/01 03:48:53;;;;;;;5.55;0.70;;;;;;;;;;5054701;28;20025;-72
2021/12/01 03:51:18;;;;;;;5.70;0.70;;;;;;;;;;5072744;28;20515;-68
2021/12/01 03:53:44;;;;;;;4.10;0.60;;;;;;;;;;5072720;28;20028;-72
2021/12/01 03:56:11;;;;;;;2.17;0.40;;;;;;;;;;5072944;28;20028;-71
2021/12/01 03:58:37;;;;;;;3.00;0.50;;;;;;;;;;5072938;28;20456;-72
2021/12/01 04:01:03;;;;;;;1.17;0.50;;;;;;;;;;5054859;28;20039;-71
2021/12/01 04:03:29;;;;;;;1.02;0.50;;;;;;;;;;5072713;28;20028;-72
2021/12/01 04:05:55;;;;;;;1.13;0.50;;;;;;;;;;5072464;28;20103;-70
2021/12/01 04:08:21;;;;;;;2.00;0.40;;;;;;;;;;5072633;28;20487;-71
2021/12/01 04:10:47;;;;;;;3.60;0.50;;;;;;;;;;5072780;28;20052;-71
2021/12/01 04:13:13;;;;;;;0.50;0.43;;;;;;;;;;5072779;28;20044;-71
2021/12/01 04:15:39;;;;;;;1.17;0.30;;;;;;;;;;5072219;28;20061;-71
2021/12/01 04:18:05;;;;;;;3.33;0.40;;;;;;;;;;5054607;28;20078;-71
2021/12/01 04:20:31;;;;;;;3.03;0.50;;;;;;;;;;5054832;28;20038;-72
2021/12/01 04:22:57;;;;;;;1.63;0.30;;;;;;;;;;5072528;28;20025;-72
2021/12/01 04:25:23;;;;;;;0.68;0.43;;;;;;;;;;5058415;28;20031;-72
2021/12/01 04:27:49;;;;;;;1.00;0.32;;;;;;;;;;5076263;28;20025;-71
2021/12/01 04:30:18;;;;;;;0.82;0.40;;;;;;;;;;5058314;28;20380;-72
2021/12/01 04:32:45;;;;;;;2.55;0.70;;;;;;;;;;5058211;28;20025;-72
2021/12/01 04:35:12;;;;;;;3.42;0.50;;;;;;;;;;5076033;28;20036;-71
2021/12/01 04:37:38;;;;;;;1.33;0.60;;;;;;;;;;5076014;28;20020;-71
2021/12/01 04:40:06;;;;;;;4.25;0.60;;;;;;;;;;5070055;28;20025;-71
2021/12/01 04:42:32;;;;;;;1.05;0.50;;;;;;;;;;5055928;28;20112;-71
2021/12/01 04:44:58;;;;;;;2.22;0.68;;;;;;;;;;5038020;28;20116;-72
2021/12/01 04:47:29;;;;;;;0.38;0.35;;;;;;;;;;5037922;28;20390;-72
2021/12/01 04:49:56;;;;;;;2.28;0.43;;;;;;;;;;5037850;28;20029;-72
2021/12/01 04:52:22;;;;;;;0.93;0.50;;;;;;;;;;5037901;28;20029;-71
2021/12/01 04:54:48;;;;;;;4.20;0.47;;;;;;;;;;5070614;28;20032;-71
2021/12/01 04:57:16;;;;;;;1.40;0.60;;;;;;;;;;5075549;28;20099;-71
2021/12/01 04:59:42;;;;;;;4.03;0.65;;;;;;;;;;5075724;28;20028;-71
2021/12/01 05:02:07;;;;;;;1.05;0.50;;;;;;;;;;5075460;28;20082;-70
2021/12/01 05:04:34;;;;;;;2.92;0.55;;;;;;;;;;5075699;28;20032;-70
2021/12/01 05:07:00;;;;;;;0.77;0.40;;;;;;;;;;5075224;28;20020;-71
2021/12/01 05:09:26;;;;;;;1.80;0.82;;;;;;;;;;5075563;28;20036;-71
2021/12/01 05:11:52;;;;;;;3.50;0.50;;;;;;;;;;5075173;28;20365;-71
2021/12/01 05:14:20;;;;;;;0.57;0.50;;;;;;;;;;5057280;28;20025;-70
2021/12/01 05:16:46;;;;;;;1.48;0.60;;;;;;;;;;5056845;28;20083;-71
2021/12/01 05:19:12;;;;;;;1.10;0.50;;;;;;;;;;5075126;28;20393;-72
2021/12/01 05:21:39;;;;;;;1.98;0.55;;;;;;;;;;5075453;28;20527;-74
2021/12/01 05:24:06;;;;;;;0.40;0.30;;;;;;;;;;5074874;28;20052;-73
2021/12/01 05:26:32;;;;;;;4.43;0.50;;;;;;;;;;5075178;28;20090;-73
2021/12/01 05:28:58;;;;;;;0.93;0.40;;;;;;;;;;5075202;28;20028;-73
2021/12/01 05:31:24;;;;;;;1.38;0.60;;;;;;;;;;5057075;28;20086;-74
2021/12/01 05:33:50;;;;;;;0.73;0.40;;;;;;;;;;5074707;28;20446;-72
2021/12/01 05:36:16;;;;;;;9.13;1.00;;;;;;;;;;5074516;28;20031;-69
2021/12/01 05:38:42;;;;;;;28.80;1.00;;;;;;;;;;5074789;28;20409;-72
2021/12/01 05:41:08;;;;;;;1.88;0.40;;;;;;;;;;5056913;28;20033;-72
2021/12/01 05:43:34;;;;;;;8.35;0.70;;;;;;;;;;5074665;28;20025;-72
2021/12/01 05:46:00;;;;;;;3.53;0.70;;;;;;;;;;5057020;28;20033;-72
2021/12/01 05:48:26;;;;;;;16.98;0.52;;;;;;;;;;5074540;28;20028;-71
2021/12/01 05:50:52;;;;;;;3.80;0.50;;;;;;;;;;5074460;28;20439;-72
2021/12/01 05:53:18;;;;;;;2.17;0.63;;;;;;;;;;5074569;28;20029;-72
2021/12/01 05:55:44;;;;;;;3.40;0.45;;;;;;;;;;5074474;28;20396;-72
2021/12/01 05:58:10;;;;;;;1.40;0.47;;;;;;;;;;5056202;28;20025;-72
2021/12/01 06:00:36;;;;;;;4.03;0.60;;;;;;;;;;5074424;28;20032;-72
2021/12/01 06:03:03;;;;;;;2.30;0.63;;;;;;;;;;5056483;28;20027;-71
2021/12/01 06:05:29;;;;;;;1.02;0.40;;;;;;;;;;5074433;28;20025;-72
2021/12/01 06:07:54;;;;;;;3.03;0.52;;;;;;;;;;5074209;28;20387;-72
2021/12/01 06:10:21;;;;;;;2.90;0.50;;;;;;;;;;5074308;28;20442;-72
2021/12/01 06:12:47;;;;;;;1.42;0.50;;;;;;;;;;5074019;28;20024;-72
2021/12/01 06:15:15;;;;;;;3.72;0.70;;;;;;;;;;5055600;28;20119;-72
2021/12/01 06:17:41;;;;;;;6.82;0.70;;;;;;;;;;5074269;28;20028;-72
2021/12/01 06:20:08;;;;;;;3.78;0.60;;;;;;;;;;5074105;28;20028;-71
2021/12/01 06:22:34;;;;;;;2.08;0.50;;;;;;;;;;5074061;28;20107;-71
2021/12/01 06:25:00;;;;;;;0.90;0.50;;;;;;;;;;5073940;28;20110;-71
2021/12/01 06:27:26;;;;;;;1.17;0.60;;;;;;;;;;5055931;28;20048;-71
2021/12/01 06:29:53;;;;;;;2.17;0.60;;;;;;;;;;5074054;28;20066;-71
2021/12/01 06:32:19;;;;;;;4.47;0.70;;;;;;;;;;5055874;28;20024;-71
2021/12/01 06:34:45;;;;;;;3.10;0.80;;;;;;;;;;5055705;28;20036;-71
2021/12/01 06:37:11;;;;;;;1.88;0.60;;;;;;;;;;5073394;28;20066;-73
2021/12/01 06:39:37;;;;;;;1.08;0.57;;;;;;;;;;5073845;28;20027;-71
2021/12/01 06:42:03;;;;;;;2.47;0.80;;;;;;;;;;5073506;28;20025;-71
2021/12/01 06:44:33;;;;;;;3.05;0.70;;;;;;;;;;5073594;28;20032;-72
2021/12/01 06:47:00;;;;;;;5.32;1.00;;;;;;;;;;5055084;28;20024;-71
2021/12/01 06:49:26;;;;;;;2.47;0.63;;;;;;;;;;5073028;28;20100;-72
2021/12/01 06:51:52;;;;;;;4.10;0.80;;;;;;;;;;5073170;28;20103;-72
2021/12/01 06:54:17;;;;;;;2.25;0.70;;;;;;;;;;5073353;28;20044;-72
2021/12/01 06:56:43;;;;;;;2.67;0.82;;;;;;;;;;5055532;28;20058;-72
2021/12/01 06:59:10;;;;;;;4.30;1.00;;;;;;;;;;5073523;28;20032;-71
2021/12/01 07:01:36;;;;;;;6.75;1.05;;;;;;;;;;5055247;28;20023;-72
2021/12/01 07:04:02;;;;;;;5.50;1.10;;;;;;;;;;5055497;28;20016;-72
2021/12/01 07:06:28;;;;;;;5.00;1.05;;;;;;;;;;5073529;28;20039;-71
2021/12/01 07:08:59;;;;;;;6.57;0.90;;;;;;;;;;5073155;28;20027;-72
2021/12/01 07:11:25;;;;;;;3.08;0.82;;;;;;;;;;5073286;28;20070;-73
2021/12/01 07:13:50;;;;;;;3.45;1.20;;;;;;;;;;5073265;28;20032;-72
2021/12/01 07:16:16;;;;;;;2.83;0.90;;;;;;;;;;5072794;28;20067;-72
2021/12/01 07:18:42;;;;;;;4.00;1.00;;;;;;;;;;5073075;28;20021;-72
2021/12/01 07:21:09;;;;;;;2.92;1.10;;;;;;;;;;5073252;28;20024;-70
2021/12/01 07:23:34;;;;;;;7.28;1.60;;;;;;;;;;5072924;28;20349;-71
2021/12/01 07:26:01;;;;;;;3.35;0.93;;;;;;;;;;5073214;28;20031;-71
2021/12/01 07:28:27;;;;;;;5.68;1.08;;;;;;;;;;5055226;28;20021;-70
2021/12/01 07:30:53;;;;;;;8.02;1.20;;;;;;;;;;5072851;28;20028;-71
2021/12/01 07:33:19;;;;;;;5.22;1.25;;;;;;;;;;5054399;28;20032;-70
2021/12/01 07:35:45;;;;;;;6.07;1.45;;;;;;;;;;5072692;28;20079;-70
2021/12/01 07:38:13;;;;;;;6.50;1.30;;;;;;;;;;5072012;28;20024;-70
2021/12/01 07:40:39;;;;;;;6.20;1.40;;;;;;;;;;5054763;28;20472;-70
2021/12/01 07:43:05;;;;;;;9.75;2.15;;;;;;;;;;5072916;28;20074;-72
2021/12/01 07:45:31;;;;;;;14.50;2.20;;;;;;;;;;5073149;28;20095;-70
2021/12/01 07:47:57;;;;;;;5.85;1.67;;;;;;;;;;5072848;28;20040;-72
2021/12/01 07:50:23;;;;;;;7.85;1.90;;;;;;;;;;5072974;28;20387;-72
2021/12/01 07:52:49;;;;;;;6.85;1.42;;;;;;;;;;5073200;28;20108;-72
2021/12/01 07:55:15;;;;;;;6.07;1.17;;;;;;;;;;5053719;28;20116;-72
2021/12/01 07:57:42;;;;;;;11.07;1.92;;;;;;;;;;5072257;28;20017;-72
2021/12/01 08:00:09;;;;;;;7.47;1.80;;;;;;;;;;5075935;28;20046;-71
2021/12/01 08:02:35;;;;;;;5.10;1.45;;;;;;;;;;5058440;28;20017;-72
2021/12/01 08:05:02;;;;;;;6.22;1.30;;;;;;;;;;5076245;28;20025;-73
2021/12/01 08:07:29;;;;;;;7.45;1.42;;;;;;;;;;5076193;28;20724;-72
2021/12/01 08:09:55;;;;;;;5.05;1.05;;;;;;;;;;5058195;28;20079;-72
2021/12/01 08:12:21;;;;;;;5.90;1.52;;;;;;;;;;5048034;28;20443;-71
2021/12/01 08:14:47;;;;;;;4.70;1.15;;;;;;;;;;5060829;28;20768;-71
2021/12/01 08:17:13;;;;;;;6.70;1.75;;;;;;;;;;5076070;28;20044;-72
2021/12/01 08:19:39;;;;;;;6.88;1.55;;;;;;;;;;5044036;28;20365;-72
2021/12/01 08:22:08;;;;;;;6.82;1.48;;;;;;;;;;5038854;28;20387;-72
2021/12/01 08:24:34;;;;;;;14.52;1.70;;;;;;;;;;5041913;28;20428;-68
2021/12/01 08:27:00;;;;;;;14.75;1.80;;;;;;;;;;5076495;28;20052;-73
2021/12/01 08:31:07;;;;;;;13.60;1.20;;;;;;;;;;5152073;27;20339;-66
2021/12/01 08:33:33;;;;;;;13.32;1.52;;;;;;;;;;5133545;27;20031;-66
2021/12/01 08:35:59;;;;;;;12.10;1.40;;;;;;;;;;5133122;27;20019;-68
2021/12/01 08:38:25;;;;;;;9.73;1.30;;;;;;;;;;5128698;27;20409;-68
2021/12/01 08:40:51;;;;;;;10.38;1.00;;;;;;;;;;5121691;28;20034;-66
2021/12/01 08:43:17;;;;;;;10.13;1.02;;;;;;;;;;5114440;28;20036;-66
2021/12/01 08:45:43;;;;;;;7.68;0.90;;;;;;;;;;5110079;28;20032;-67
2021/12/01 08:48:09;;;;;;;10.32;1.40;;;;;;;;;;5091582;28;20475;-66
2021/12/01 08:50:35;;;;;;;4.85;0.90;;;;;;;;;;5109783;28;20063;-68
2021/12/01 08:53:01;;;;;;;5.53;1.17;;;;;;;;;;5091956;28;20352;-68
2021/12/01 08:55:28;;;;;;;8.13;1.15;;;;;;;;;;5109141;28;20019;-67
2021/12/01 08:57:54;;;;;;;7.00;1.30;;;;;;;;;;5130483;28;20027;-68
2021/12/01 09:00:21;;;;;;;6.13;1.27;;;;;;;;;;5130129;28;20471;-69
2021/12/01 09:02:47;;;;;;;7.53;1.08;;;;;;;;;;5130278;28;20042;-67
2021/12/01 09:05:13;;;;;;;4.10;0.95;;;;;;;;;;5111597;28;20031;-67
2021/12/01 09:07:39;;;;;;;7.88;1.00;;;;;;;;;;5095692;28;20390;-67
2021/12/01 09:10:06;;;;;;;10.15;1.10;;;;;;;;;;5109353;28;20115;-67
2021/12/01 09:12:32;;;;;;;5.13;1.30;;;;;;;;;;5098458;28;20043;-68
2021/12/01 09:14:58;;;;;;;5.03;1.27;;;;;;;;;;5130046;28;20027;-66
2021/12/01 09:17:25;;;;;;;8.52;1.38;;;;;;;;;;5129750;28;20527;-66
2021/12/01 09:19:51;;;;;;;4.47;0.90;;;;;;;;;;5111469;28;20017;-68
2021/12/01 09:22:18;;;;;;;5.22;1.20;;;;;;;;;;5129977;28;20028;-67
2021/12/01 09:24:44;;;;;;;5.68;1.17;;;;;;;;;;5129838;28;20336;-66
2021/12/01 09:27:10;;;;;;;4.30;1.15;;;;;;;;;;5130083;28;20030;-67
2021/12/01 09:29:36;;;;;;;4.75;1.10;;;;;;;;;;5111133;28;20047;-66
2021/12/01 09:32:03;;;;;;;5.32;0.90;;;;;;;;;;5111241;28;20032;-67
2021/12/01 09:34:29;;;;;;;6.38;1.10;;;;;;;;;;5111203;28;20027;-66
2021/12/01 09:36:56;;;;;;;3.67;0.93;;;;;;;;;;5129520;28;20030;-68
2021/12/01 09:39:23;;;;;;;8.13;0.90;;;;;;;;;;5129498;28;20375;-66
2021/12/01 09:41:49;;;;;;;6.05;1.20;;;;;;;;;;5119628;28;20020;-68
2021/12/01 09:44:15;;;;;;;7.65;1.20;;;;;;;;;;5116144;28;20028;-73
2021/12/01 09:46:41;;;;;;;6.53;1.20;;;;;;;;;;5090176;28;20792;-66
2021/12/01 09:49:07;;;;;;;4.88;1.23;;;;;;;;;;5077226;28;20042;-67
2021/12/01 09:51:33;;;;;;;9.45;1.13;;;;;;;;;;5095443;28;20031;-66
2021/12/01 09:54:00;;;;;;;9.50;1.17;;;;;;;;;;5103930;28;20538;-66
2021/12/01 09:56:27;;;;;;;6.25;1.15;;;;;;;;;;5097907;28;20026;-72
2021/12/01 09:58:53;;;;;;;5.85;1.30;;;;;;;;;;5115580;28;20378;-66
2021/12/01 10:01:20;;;;;;;7.22;1.10;;;;;;;;;;5115321;28;20037;-66
2021/12/01 10:03:46;;;;;;;7.18;1.27;;;;;;;;;;5115469;28;20089;-69
2021/12/01 10:06:14;;;;;;;7.05;1.10;;;;;;;;;;5115011;28;20455;-70
2021/12/01 10:08:42;;;;;;;5.93;0.95;;;;;;;;;;5113990;28;20474;-65
2021/12/01 10:11:09;;;;;;;5.22;1.23;;;;;;;;;;5115332;28;20061;-65
2021/12/01 10:13:37;;;;;;;6.00;0.90;;;;;;;;;;5115424;28;20088;-66
2021/12/01 10:16:05;;;;;;;6.80;1.38;;;;;;;;;;5115195;28;20163;-66
2021/12/01 10:18:48;;;;;;;8.50;1.50;;;;;;;;;;5115184;28;20047;-66
2021/12/01 10:21:15;;;;;;;7.68;1.13;;;;;;;;;;5115100;28;20394;-65
2021/12/01 10:23:44;;;;;;;6.25;1.30;;;;;;;;;;5114742;28;20039;-66
2021/12/01 10:26:15;;;;;;;9.23;1.50;;;;;;;;;;5114848;28;20027;-66
2021/12/01 10:28:42;;;;;;;6.47;1.27;;;;;;;;;;5114094;28;20104;-65
2021/12/01 10:31:08;;;;;;;4.32;1.20;;;;;;;;;;5114639;28;20043;-66
2021/12/01 10:33:34;;;;;;;4.32;1.30;;;;;;;;;;5114734;28;20050;-66
2021/12/01 10:36:02;;;;;;;4.30;1.10;;;;;;;;;;5114930;28;20027;-70
2021/12/01 10:38:33;;;;;;;33.55;1.73;;;;;;;;;;5096747;28;20020;-66
2021/12/01 10:41:03;;;;;;;8.32;1.70;;;;;;;;;;5114639;28;20481;-64
2021/12/01 10:43:37;;;;;;;11.40;1.52;;;;;;;;;;5114643;28;20043;-65
2021/12/01 10:46:07;;;;;;;7.25;1.40;;;;;;;;;;5111874;28;20081;-67
2021/12/01 10:48:33;;;;;;;7.80;1.10;;;;;;;;;;5094020;28;20054;-65
2021/12/01 10:50:59;;;;;;;5.35;1.20;;;;;;;;;;5094061;28;20044;-65
2021/12/01 10:53:26;;;;;;;7.90;1.60;;;;;;;;;;5096941;28;20015;-69
2021/12/01 10:56:00;;;;;;;7.57;1.48;;;;;;;;;;5114206;28;20467;-65
2021/12/01 10:58:35;;;;;;;4.65;1.35;;;;;;;;;;5114277;28;20027;-67
2021/12/01 11:01:03;;;;;;;5.55;1.20;;;;;;;;;;5114327;28;20024;-69
2021/12/01 11:03:30;;;;;;;7.10;1.40;;;;;;;;;;5096035;28;20035;-65
2021/12/01 11:05:58;;;;;;;7.63;1.38;;;;;;;;;;5113639;28;20814;-66
2021/12/01 11:08:25;;;;;;;6.93;1.33;;;;;;;;;;5104100;28;20039;-64
2021/12/01 11:11:04;;;;;;;6.50;1.38;;;;;;;;;;5091803;28;20085;-66
2021/12/01 11:13:30;;;;;;;4.53;1.33;;;;;;;;;;5095155;28;20035;-66
2021/12/01 11:15:57;;;;;;;10.38;1.55;;;;;;;;;;5106598;28;20044;-66
2021/12/01 11:18:28;;;;;;;4.28;1.17;;;;;;;;;;5105962;28;20530;-65
2021/12/01 11:20:54;;;;;;;8.45;1.00;;;;;;;;;;5113350;28;20035;-67
2021/12/01 11:23:34;;;;;;;14.63;1.38;;;;;;;;;;5108138;28;20073;-65
2021/12/01 11:26:04;;;;;;;7.32;1.33;;;;;;;;;;5103780;28;20070;-67
2021/12/01 11:28:32;;;;;;;6.90;1.50;;;;;;;;;;5093219;28;20024;-67
2021/12/01 11:30:59;;;;;;;12.05;1.40;;;;;;;;;;5111102;28;20487;-67
2021/12/01 11:33:25;;;;;;;6.63;1.40;;;;;;;;;;5110261;28;20536;-67
2021/12/01 11:35:53;;;;;;;4.35;1.33;;;;;;;;;;5113269;28;20030;-66
2021/12/01 11:38:19;;;;;;;5.30;1.17;;;;;;;;;;5095258;28;20470;-67
2021/12/01 11:40:46;;;;;;;6.95;1.35;;;;;;;;;;5113402;28;20027;-66
2021/12/01 11:43:13;;;;;;;6.22;1.50;;;;;;;;;;5113686;28;20068;-67
2021/12/01 11:45:40;;;;;;;4.68;1.30;;;;;;;;;;5113531;28;20024;-67
2021/12/01 11:48:09;;;;;;;7.40;1.20;;;;;;;;;;5093738;28;20020;-67
2021/12/01 11:50:36;;;;;;;4.22;1.02;;;;;;;;;;5092720;28;20059;-67
2021/12/01 11:53:03;;;;;;;5.75;1.38;;;;;;;;;;5093536;28;20021;-66
2021/12/01 11:55:47;;;;;;;4.00;1.05;;;;;;;;;;5113199;28;20027;-66
2021/12/01 11:58:33;;;;;;;6.75;1.40;;;;;;;;;;5094901;28;20028;-66
2021/12/01 12:00:59;;;;;;;6.07;1.30;;;;;;;;;;5094917;28;20031;-66
2021/12/01 12:03:26;;;;;;;4.60;0.90;;;;;;;;;;5113139;28;20044;-67
2021/12/01 12:06:11;;;;;;;7.30;1.50;;;;;;;;;;5094857;28;20043;-67
2021/12/01 12:09:09;;;;;;;2.47;0.95;;;;;;;;;;5110524;28;20031;-67
2021/12/01 12:11:36;;;;;;;3.97;1.02;;;;;;;;;;5042157;28;20742;-69
2021/12/01 12:14:03;;;;;;;7.47;1.45;;;;;;;;;;5094757;28;20028;-66
2021/12/01 12:16:29;;;;;;;6.38;1.25;;;;;;;;;;5092212;28;20031;-66
2021/12/01 12:18:57;;;;;;;5.80;1.50;;;;;;;;;;5093117;28;20036;-67
2021/12/01 12:24:05;;;;;;;7.72;1.40;;;;;;;;;;5106834;28;20032;-66
2021/12/01 12:26:32;;;;;;;3.72;1.08;;;;;;;;;;5105925;28;20069;-67
2021/12/01 12:29:17;;;;;;;4.32;1.30;;;;;;;;;;5098019;28;20030;-67
2021/12/01 12:31:45;;;;;;;12.35;1.33;;;;;;;;;;5094183;28;20366;-68
2021/12/01 12:34:15;;;;;;;7.28;1.50;;;;;;;;;;5112948;28;20016;-67
2021/12/01 12:36:47;;;;;;;6.78;1.40;;;;;;;;;;5112805;28;20100;-71
2021/12/01 12:39:18;;;;;;;8.52;1.67;;;;;;;;;;5094703;28;20068;-68
2021/12/01 12:42:11;;;;;;;7.35;1.40;;;;;;;;;;5094465;28;20531;-68
2021/12/01 12:44:37;;;;;;;;;;;;;;;;;;5083206;28;20044;-68
2021/12/01 12:47:22;;;;;;;5.35;1.50;;;;;;;;;;5092434;28;19956;-68
2021/12/01 12:50:02;;;;;;;6.35;1.45;;;;;;;;;;5092183;28;20436;-67
2021/12/01 12:52:30;;;;;;;6.57;1.40;;;;;;;;;;5092303;28;20020;-68
2021/12/01 12:54:58;;;;;;;4.97;1.40;;;;;;;;;;5108696;28;20016;-68
2021/12/01 12:57:25;;;;;;;9.10;1.50;;;;;;;;;;5112655;28;20024;-67
2021/12/01 13:00:10;;;;;;;12.15;1.35;;;;;;;;;;5112374;28;20020;-67
2021/12/01 13:02:36;;;;;;;7.20;1.50;;;;;;;;;;5094355;28;20024;-67
2021/12/01 13:05:05;;;;;;;5.22;1.17;;;;;;;;;;5112468;28;20041;-67
2021/12/01 13:07:34;;;;;;;7.97;1.45;;;;;;;;;;5097671;28;20027;-67
2021/12/01 13:10:19;;;;;;;11.52;1.90;;;;;;;;;;5091844;28;20467;-66
2021/12/01 13:12:46;;;;;;;7.40;1.80;;;;;;;;;;5092278;28;20024;-67
2021/12/01 13:15:38;;;;;;;4.85;1.50;;;;;;;;;;5091895;28;20025;-67
2021/12/01 13:18:06;;;;;;;8.07;1.67;;;;;;;;;;5065048;28;20036;-67
2021/12/01 13:20:34;;;;;;;6.00;1.70;;;;;;;;;;5100208;28;20486;-66
2021/12/01 13:23:05;;;;;;;17.00;1.73;;;;;;;;;;5097033;28;20032;-66
2021/12/01 13:25:32;;;;;;;9.35;1.88;;;;;;;;;;5115807;28;20020;-67
2021/12/01 13:28:02;;;;;;;11.48;1.92;;;;;;;;;;5097579;28;20189;-67
2021/12/01 13:30:29;;;;;;;8.63;1.55;;;;;;;;;;5115560;28;20047;-67
2021/12/01 13:33:12;;;;;;;23.35;1.92;;;;;;;;;;5115901;28;20114;-67
2021/12/01 13:35:38;;;;;;;14.63;1.83;;;;;;;;;;5115916;28;20027;-67
2021/12/01 13:38:04;;;;;;;10.00;1.67;;;;;;;;;;5115630;28;20023;-67
2021/12/01 13:40:30;;;;;;;22.10;1.98;;;;;;;;;;5116039;28;20031;-67
2021/12/01 13:42:56;;;;;;;6.88;1.52;;;;;;;;;;5116065;28;20019;-67
2021/12/01 13:45:26;;;;;;;9.20;1.50;;;;;;;;;;5115833;28;20069;-66
2021/12/01 13:47:52;;;;;;;7.75;1.63;;;;;;;;;;5115540;28;20016;-67
2021/12/01 13:50:19;;;;;;;7.68;1.70;;;;;;;;;;5115581;28;20039;-67
2021/12/01 13:52:47;;;;;;;8.65;1.60;;;;;;;;;;5115664;28;20047;-67
2021/12/01 13:55:15;;;;;;;7.53;1.85;;;;;;;;;;5115540;28;20019;-67
2021/12/01 13:57:42;;;;;;;8.23;1.70;;;;;;;;;;5115385;28;20078;-67
2021/12/01 14:00:08;;;;;;;11.75;1.60;;;;;;;;;;5115374;28;20041;-67
2021/12/01 14:02:34;;;;;;;6.28;1.50;;;;;;;;;;5115233;28;20069;-67
2021/12/01 14:05:03;;;;;;;7.95;1.35;;;;;;;;;;5115296;28;20524;-67
2021/12/01 14:07:42;;;;;;;10.27;1.65;;;;;;;;;;5096705;28;20019;-67
2021/12/01 14:10:27;;;;;;;6.95;1.77;;;;;;;;;;5114935;28;20130;-67
2021/12/01 14:12:53;;;;;;;8.63;1.80;;;;;;;;;;5114989;28;20510;-67
2021/12/01 14:15:20;;;;;;;6.20;1.58;;;;;;;;;;5114937;28;20107;-67
2021/12/01 14:17:46;;;;;;;7.75;1.23;;;;;;;;;;5115080;28;20027;-66
2021/12/01 14:20:14;;;;;;;6.38;1.60;;;;;;;;;;5114998;28;20099;-66
2021/12/01 14:22:43;;;;;;;8.23;1.40;;;;;;;;;;5114806;28;20024;-66
2021/12/01 14:25:12;;;;;;;7.10;1.67;;;;;;;;;;5096556;28;20035;-66
2021/12/01 14:27:38;;;;;;;8.35;1.60;;;;;;;;;;5115089;28;20020;-67
2021/12/01 14:30:08;;;;;;;6.35;1.48;;;;;;;;;;5096162;28;20411;-66
2021/12/01 14:32:35;;;;;;;5.72;1.40;;;;;;;;;;5114727;28;20494;-66
2021/12/01 14:35:02;;;;;;;4.72;1.50;;;;;;;;;;5114803;28;20035;-66
2021/12/01 14:37:29;;;;;;;3.60;1.15;;;;;;;;;;5114517;28;20026;-65
2021/12/01 14:40:12;;;;;;;4.88;1.27;;;;;;;;;;5096381;28;20592;-66
2021/12/01 14:42:38;;;;;;;;;;;;;;;;;;5114875;28;20038;-66
2021/12/01 14:45:07;;;;;;;4.68;1.50;;;;;;;;;;5096340;28;19907;-66
2021/12/01 14:47:33;;;;;;;6.70;1.42;;;;;;;;;;5105866;28;20024;-66
2021/12/01 14:49:59;;;;;;;4.95;1.23;;;;;;;;;;5113472;28;20467;-66
2021/12/01 14:52:28;;;;;;;5.05;1.52;;;;;;;;;;5113926;28;20104;-66